createdAt,value
2017-02-12T00:00:21.239Z,0
2017-02-12T00:01:34.274Z,0
2017-02-12T00:02:47.331Z,0
2017-02-12T00:04:00.492Z,0
2017-02-12T00:05:13.138Z,0
2017-02-12T00:06:26.166Z,0
2017-02-12T00:07:39.223Z,0
2017-02-12T00:08:52.308Z,0
2017-02-12T00:10:05.344Z,0
2017-02-12T00:11:18.410Z,0
2017-02-12T00:12:31.088Z,0
2017-02-12T00:13:43.767Z,0
2017-02-12T00:14:56.836Z,0
2017-02-12T00:16:09.958Z,0
2017-02-12T00:17:23.016Z,0
2017-02-12T00:18:35.943Z,0
2017-02-12T00:19:49.013Z,0
2017-02-12T00:21:02.067Z,0
2017-02-12T00:22:14.812Z,0
2017-02-12T00:23:27.858Z,0
2017-02-12T00:24:40.879Z,0
2017-02-12T00:25:53.941Z,0
2017-02-12T00:27:06.994Z,0
2017-02-12T00:28:19.648Z,0
2017-02-12T00:29:32.653Z,0
2017-02-12T00:30:45.734Z,0
2017-02-12T00:31:58.878Z,0
2017-02-12T00:33:11.942Z,0
2017-02-12T00:34:24.975Z,0
2017-02-12T00:35:37.735Z,0
2017-02-12T00:36:50.763Z,0
2017-02-12T00:38:03.802Z,0
2017-02-12T00:39:16.829Z,0
2017-02-12T00:40:29.538Z,0
2017-02-12T00:41:42.248Z,0
2017-02-12T00:42:55.324Z,0
2017-02-12T00:44:08.436Z,0
2017-02-12T00:45:21.134Z,0
2017-02-12T00:46:34.224Z,0
2017-02-12T00:47:47.251Z,0
2017-02-12T00:49:00.316Z,0
2017-02-12T00:50:13.360Z,0
2017-02-12T00:51:26.424Z,0
2017-02-12T00:52:39.554Z,0
2017-02-12T00:53:52.618Z,0
2017-02-12T00:55:05.758Z,0
2017-02-12T00:56:18.851Z,0
2017-02-12T00:57:31.918Z,0
2017-02-12T00:58:44.551Z,0
2017-02-12T00:59:57.621Z,0
2017-02-12T01:01:10.724Z,0
2017-02-12T01:02:23.777Z,0
2017-02-12T01:03:36.458Z,0
2017-02-12T01:04:49.511Z,0
2017-02-12T01:06:02.631Z,0
2017-02-12T01:07:15.296Z,0
2017-02-12T01:08:28.348Z,0
2017-02-12T01:09:41.382Z,0
2017-02-12T01:10:54.434Z,0
2017-02-12T01:12:07.520Z,0
2017-02-12T01:13:20.200Z,0
2017-02-12T01:14:33.278Z,0
2017-02-12T01:15:45.919Z,0
2017-02-12T01:16:58.995Z,0
2017-02-12T01:18:11.654Z,0
2017-02-12T01:19:24.722Z,0
2017-02-12T01:20:37.382Z,0
2017-02-12T01:21:50.440Z,0
2017-02-12T01:23:03.467Z,0
2017-02-12T01:24:16.219Z,0
2017-02-12T01:25:29.273Z,0
2017-02-12T01:26:41.944Z,0
2017-02-12T01:27:55.076Z,0
2017-02-12T01:29:08.163Z,0
2017-02-12T01:30:20.483Z,0
2017-02-12T01:31:33.553Z,0
2017-02-12T01:32:46.591Z,0
2017-02-12T01:33:59.637Z,0
2017-02-12T01:35:12.315Z,0
2017-02-12T01:36:25.367Z,0
2017-02-12T01:37:38.381Z,0
2017-02-12T01:38:51.453Z,0
2017-02-12T01:40:04.530Z,0
2017-02-12T01:41:17.545Z,0
2017-02-12T01:42:30.664Z,0
2017-02-12T01:43:43.322Z,0
2017-02-12T01:44:56.656Z,0
2017-02-12T01:46:09.739Z,0
2017-02-12T01:47:22.404Z,0
2017-02-12T01:48:35.461Z,0
2017-02-12T01:49:48.490Z,0
2017-02-12T01:51:01.564Z,0
2017-02-12T01:52:14.619Z,0
2017-02-12T01:53:27.734Z,0
2017-02-12T01:54:40.774Z,0
2017-02-12T01:55:53.845Z,0
2017-02-12T01:57:06.944Z,0
2017-02-12T01:58:19.636Z,0
2017-02-12T01:59:32.639Z,0
2017-02-12T02:00:45.715Z,0
2017-02-12T02:01:58.761Z,0
2017-02-12T02:03:11.871Z,0
2017-02-12T02:04:24.517Z,0
2017-02-12T02:05:37.511Z,0
2017-02-12T02:06:50.201Z,0
2017-02-12T02:08:02.841Z,0
2017-02-12T02:09:15.525Z,0
2017-02-12T02:10:28.570Z,0
2017-02-12T02:11:41.266Z,0
2017-02-12T02:12:54.341Z,0
2017-02-12T02:14:07.409Z,0
2017-02-12T02:15:20.479Z,0
2017-02-12T02:16:33.603Z,0
2017-02-12T02:17:46.703Z,0
2017-02-12T02:18:59.777Z,0
2017-02-12T02:20:12.412Z,0
2017-02-12T02:21:25.499Z,0
2017-02-12T02:22:38.533Z,0
2017-02-12T02:23:51.553Z,0
2017-02-12T02:25:04.700Z,0
2017-02-12T02:26:17.802Z,0
2017-02-12T02:27:30.889Z,0
2017-02-12T02:28:43.971Z,0
2017-02-12T02:29:57.004Z,0
2017-02-12T02:31:10.092Z,0
2017-02-12T02:32:23.150Z,0
2017-02-12T02:33:36.228Z,0
2017-02-12T02:34:49.267Z,0
2017-02-12T02:36:02.362Z,0
2017-02-12T02:37:15.458Z,0
2017-02-12T02:38:28.504Z,0
2017-02-12T02:39:41.538Z,0
2017-02-12T02:40:54.628Z,0
2017-02-12T02:42:07.712Z,0
2017-02-12T02:43:20.384Z,0
2017-02-12T02:44:33.436Z,0
2017-02-12T02:45:46.481Z,0
2017-02-12T02:46:59.579Z,0
2017-02-12T02:48:12.635Z,0
2017-02-12T02:49:25.648Z,0
2017-02-12T02:50:38.688Z,0
2017-02-12T02:51:51.748Z,0
2017-02-12T02:53:04.812Z,0
2017-02-12T02:54:17.898Z,0
2017-02-12T02:55:31.036Z,0
2017-02-12T02:56:44.114Z,0
2017-02-12T02:57:57.258Z,0
2017-02-12T02:59:10.307Z,0
2017-02-12T03:00:22.939Z,0
2017-02-12T03:01:35.673Z,0
2017-02-12T03:02:48.398Z,0
2017-02-12T03:04:01.451Z,0
2017-02-12T03:05:14.517Z,0
2017-02-12T03:06:27.606Z,0
2017-02-12T03:07:40.281Z,0
2017-02-12T03:08:53.443Z,0
2017-02-12T03:10:06.132Z,0
2017-02-12T03:11:19.207Z,0
2017-02-12T03:12:32.111Z,0
2017-02-12T03:13:44.764Z,0
2017-02-12T03:14:57.831Z,0
2017-02-12T03:16:10.156Z,0
2017-02-12T03:17:22.804Z,0
2017-02-12T03:18:35.867Z,0
2017-02-12T03:19:48.551Z,0
2017-02-12T03:21:01.682Z,0
2017-02-12T03:22:14.342Z,0
2017-02-12T03:23:27.454Z,0
2017-02-12T03:24:40.537Z,0
2017-02-12T03:25:53.572Z,0
2017-02-12T03:27:06.647Z,0
2017-02-12T03:28:19.706Z,0
2017-02-12T03:29:32.707Z,0
2017-02-12T03:30:45.401Z,0
2017-02-12T03:31:58.543Z,0
2017-02-12T03:33:11.633Z,0
2017-02-12T03:34:24.642Z,0
2017-02-12T03:35:37.687Z,0
2017-02-12T03:36:50.728Z,0
2017-02-12T03:38:03.764Z,0
2017-02-12T03:39:16.812Z,0
2017-02-12T03:40:29.827Z,0
2017-02-12T03:41:42.525Z,0
2017-02-12T03:42:55.656Z,0
2017-02-12T03:44:08.796Z,0
2017-02-12T03:45:21.535Z,0
2017-02-12T03:46:34.598Z,0
2017-02-12T03:47:47.709Z,0
2017-02-12T03:49:00.378Z,0
2017-02-12T03:50:13.486Z,0
2017-02-12T03:51:26.564Z,0
2017-02-12T03:52:39.648Z,0
2017-02-12T03:53:52.737Z,0
2017-02-12T03:55:05.796Z,0
2017-02-12T03:56:18.861Z,0
2017-02-12T03:57:31.969Z,0
2017-02-12T03:58:44.667Z,0
2017-02-12T03:59:57.782Z,0
2017-02-12T04:01:10.421Z,0
2017-02-12T04:02:23.124Z,0
2017-02-12T04:03:36.149Z,0
2017-02-12T04:04:48.851Z,0
2017-02-12T04:06:01.954Z,0
2017-02-12T04:07:15.007Z,0
2017-02-12T04:08:28.170Z,0
2017-02-12T04:09:40.917Z,0
2017-02-12T04:10:53.913Z,0
2017-02-12T04:12:06.608Z,0
2017-02-12T04:13:19.282Z,0
2017-02-12T04:14:32.361Z,0
2017-02-12T04:15:45.044Z,0
2017-02-12T04:16:58.116Z,0
2017-02-12T04:18:11.119Z,0
2017-02-12T04:19:23.812Z,0
2017-02-12T04:20:36.854Z,0
2017-02-12T04:21:49.943Z,0
2017-02-12T04:23:02.963Z,0
2017-02-12T04:24:15.996Z,0
2017-02-12T04:25:29.025Z,0
2017-02-12T04:26:42.075Z,0
2017-02-12T04:27:55.221Z,0
2017-02-12T04:29:08.329Z,0
2017-02-12T04:30:21.397Z,0
2017-02-12T04:31:34.479Z,0
2017-02-12T04:32:47.864Z,0
2017-02-12T04:34:00.890Z,0
2017-02-12T04:35:13.954Z,0
2017-02-12T04:36:27.014Z,0
2017-02-12T04:37:40.377Z,0
2017-02-12T04:38:53.475Z,0
2017-02-12T04:40:06.563Z,0
2017-02-12T04:41:19.590Z,0
2017-02-12T04:42:32.716Z,0
2017-02-12T04:43:45.852Z,0
2017-02-12T04:44:58.872Z,0
2017-02-12T04:46:11.918Z,0
2017-02-12T04:47:24.967Z,0
2017-02-12T04:48:38.095Z,0
2017-02-12T04:49:51.160Z,0
2017-02-12T04:51:04.176Z,0
2017-02-12T04:52:16.799Z,0
2017-02-12T04:53:29.799Z,0
2017-02-12T04:54:42.888Z,0
2017-02-12T04:55:55.619Z,0
2017-02-12T04:57:08.705Z,0
2017-02-12T04:58:21.427Z,0
2017-02-12T04:59:34.474Z,0
2017-02-12T05:00:47.549Z,0
2017-02-12T05:02:00.569Z,0
2017-02-12T05:03:13.628Z,0
2017-02-12T05:04:26.648Z,0
2017-02-12T05:05:39.737Z,0
2017-02-12T05:06:52.433Z,0
2017-02-12T05:08:05.569Z,0
2017-02-12T05:09:18.240Z,0
2017-02-12T05:10:31.245Z,0
2017-02-12T05:11:43.909Z,0
2017-02-12T05:12:57.051Z,0
2017-02-12T05:14:09.759Z,0
2017-02-12T05:15:22.394Z,0
2017-02-12T05:16:35.424Z,0
2017-02-12T05:17:48.113Z,0
2017-02-12T05:19:01.249Z,0
2017-02-12T05:20:14.295Z,0
2017-02-12T05:21:26.998Z,0
2017-02-12T05:22:40.076Z,0
2017-02-12T05:23:53.132Z,0
2017-02-12T05:25:06.204Z,0
2017-02-12T05:26:19.247Z,0
2017-02-12T05:27:32.358Z,0
2017-02-12T05:28:45.377Z,0
2017-02-12T05:29:58.411Z,0
2017-02-12T05:31:11.489Z,0
2017-02-12T05:32:24.577Z,0
2017-02-12T05:33:37.656Z,0
2017-02-12T05:34:50.332Z,0
2017-02-12T05:36:03.427Z,0
2017-02-12T05:37:15.719Z,0
2017-02-12T05:38:28.745Z,0
2017-02-12T05:39:41.817Z,0
2017-02-12T05:40:54.882Z,0
2017-02-12T05:42:07.915Z,0
2017-02-12T05:43:21.017Z,0
2017-02-12T05:44:34.030Z,0
2017-02-12T05:45:47.137Z,0
2017-02-12T05:47:00.215Z,0
2017-02-12T05:48:12.965Z,0
2017-02-12T05:49:25.670Z,0
2017-02-12T05:50:38.756Z,0
2017-02-12T05:51:51.014Z,0
2017-02-12T05:53:04.102Z,0
2017-02-12T05:54:16.687Z,0
2017-02-12T05:55:29.751Z,0
2017-02-12T05:56:42.860Z,0
2017-02-12T05:57:55.979Z,4
2017-02-12T05:59:09.037Z,4
2017-02-12T06:00:22.098Z,0
2017-02-12T06:01:35.116Z,4
2017-02-12T06:02:48.184Z,4
2017-02-12T06:04:01.306Z,4
2017-02-12T06:05:14.360Z,4
2017-02-12T06:06:27.444Z,4
2017-02-12T06:07:40.457Z,8
2017-02-12T06:08:53.593Z,8
2017-02-12T06:10:06.686Z,8
2017-02-12T06:11:19.811Z,8
2017-02-12T06:12:32.935Z,12
2017-02-12T06:13:45.648Z,16
2017-02-12T06:14:58.678Z,20
2017-02-12T06:16:11.762Z,20
2017-02-12T06:17:24.464Z,28
2017-02-12T06:18:37.533Z,32
2017-02-12T06:19:50.625Z,36
2017-02-12T06:21:03.738Z,40
2017-02-12T06:22:16.809Z,44
2017-02-12T06:23:29.844Z,52
2017-02-12T06:24:42.846Z,56
2017-02-12T06:25:55.933Z,68
2017-02-12T06:27:08.985Z,72
2017-02-12T06:28:22.067Z,76
2017-02-12T06:29:35.147Z,88
2017-02-12T06:30:48.179Z,96
2017-02-12T06:32:01.269Z,104
2017-02-12T06:33:13.990Z,116
2017-02-12T06:34:27.060Z,128
2017-02-12T06:35:40.128Z,144
2017-02-12T06:36:53.193Z,152
2017-02-12T06:38:06.269Z,168
2017-02-12T06:39:18.951Z,176
2017-02-12T06:40:32.059Z,188
2017-02-12T06:41:45.135Z,200
2017-02-12T06:42:58.177Z,208
2017-02-12T06:44:11.253Z,224
2017-02-12T06:45:24.362Z,240
2017-02-12T06:46:37.421Z,256
2017-02-12T06:47:50.486Z,276
2017-02-12T06:49:03.579Z,292
2017-02-12T06:50:16.297Z,312
2017-02-12T06:51:29.385Z,336
2017-02-12T06:52:42.664Z,356
2017-02-12T06:53:55.720Z,368
2017-02-12T06:55:08.823Z,388
2017-02-12T06:56:21.905Z,404
2017-02-12T06:57:34.935Z,432
2017-02-12T06:58:47.998Z,468
2017-02-12T07:00:01.056Z,512
2017-02-12T07:01:13.351Z,556
2017-02-12T07:02:26.472Z,604
2017-02-12T07:03:39.555Z,644
2017-02-12T07:04:52.604Z,688
2017-02-12T07:06:05.626Z,748
2017-02-12T07:07:18.692Z,812
2017-02-12T07:08:31.813Z,840
2017-02-12T07:09:44.866Z,840
2017-02-12T07:10:57.894Z,852
2017-02-12T07:12:10.183Z,884
2017-02-12T07:13:22.844Z,928
2017-02-12T07:14:35.870Z,972
2017-02-12T07:15:48.889Z,1000
2017-02-12T07:17:01.956Z,1016
2017-02-12T07:18:13.906Z,1064
2017-02-12T07:19:26.954Z,1124
2017-02-12T07:20:40.023Z,1172
2017-02-12T07:21:53.095Z,1236
2017-02-12T07:23:06.142Z,1300
2017-02-12T07:24:19.185Z,1332
2017-02-12T07:25:32.263Z,1392
2017-02-12T07:26:45.335Z,1444
2017-02-12T07:27:58.472Z,1488
2017-02-12T07:29:11.523Z,1536
2017-02-12T07:30:24.635Z,1596
2017-02-12T07:31:37.684Z,1632
2017-02-12T07:32:50.752Z,1676
2017-02-12T07:34:03.849Z,1720
2017-02-12T07:35:16.587Z,1736
2017-02-12T07:36:29.632Z,1752
2017-02-12T07:37:42.717Z,1780
2017-02-12T07:38:55.757Z,1828
2017-02-12T07:40:08.827Z,1892
2017-02-12T07:41:21.873Z,1936
2017-02-12T07:42:34.996Z,2024
2017-02-12T07:43:48.044Z,2084
2017-02-12T07:45:01.135Z,2156
2017-02-12T07:46:14.194Z,2224
2017-02-12T07:47:27.504Z,2316
2017-02-12T07:48:40.609Z,2408
2017-02-12T07:49:53.631Z,2392
2017-02-12T07:51:06.733Z,2408
2017-02-12T07:52:19.397Z,2436
2017-02-12T07:53:32.503Z,2488
2017-02-12T07:54:45.564Z,2488
2017-02-12T07:55:58.648Z,2496
2017-02-12T07:57:11.747Z,2512
2017-02-12T07:58:24.424Z,2572
2017-02-12T07:59:37.510Z,2628
2017-02-12T08:00:50.194Z,2628
2017-02-12T08:02:03.320Z,2672
2017-02-12T08:03:15.614Z,2788
2017-02-12T08:04:28.958Z,2904
2017-02-12T08:05:42.015Z,2968
2017-02-12T08:06:55.061Z,3068
2017-02-12T08:08:08.083Z,3144
2017-02-12T08:09:21.177Z,3236
2017-02-12T08:10:34.235Z,3320
2017-02-12T08:11:47.351Z,3464
2017-02-12T08:13:00.496Z,3660
2017-02-12T08:14:13.561Z,3760
2017-02-12T08:15:26.598Z,3780
2017-02-12T08:16:39.664Z,3856
2017-02-12T08:17:52.355Z,3944
2017-02-12T08:19:05.445Z,4048
2017-02-12T08:20:18.122Z,4116
2017-02-12T08:21:31.190Z,4100
2017-02-12T08:22:44.238Z,4144
2017-02-12T08:23:57.244Z,4156
2017-02-12T08:25:09.983Z,4224
2017-02-12T08:26:22.601Z,4252
2017-02-12T08:27:35.691Z,4264
2017-02-12T08:28:48.761Z,4272
2017-02-12T08:30:01.913Z,4292
2017-02-12T08:31:14.228Z,4256
2017-02-12T08:32:27.267Z,4244
2017-02-12T08:33:40.313Z,4240
2017-02-12T08:34:53.416Z,4280
2017-02-12T08:36:06.438Z,4280
2017-02-12T08:37:19.459Z,4324
2017-02-12T08:38:32.502Z,4424
2017-02-12T08:39:45.576Z,4616
2017-02-12T08:40:58.676Z,4712
2017-02-12T08:42:11.745Z,4744
2017-02-12T08:43:24.792Z,4904
2017-02-12T08:44:37.834Z,5000
2017-02-12T08:45:50.914Z,5112
2017-02-12T08:47:03.992Z,5216
2017-02-12T08:48:17.059Z,5348
2017-02-12T08:49:30.129Z,5412
2017-02-12T08:50:43.225Z,5468
2017-02-12T08:51:56.288Z,5544
2017-02-12T08:53:09.330Z,5688
2017-02-12T08:54:21.651Z,5792
2017-02-12T08:55:34.734Z,5836
2017-02-12T08:56:47.828Z,5868
2017-02-12T08:58:00.923Z,5956
2017-02-12T08:59:13.246Z,5976
2017-02-12T09:00:26.334Z,6008
2017-02-12T09:01:39.386Z,5960
2017-02-12T09:02:52.397Z,5876
2017-02-12T09:04:05.774Z,5936
2017-02-12T09:05:18.451Z,6040
2017-02-12T09:06:31.560Z,6100
2017-02-12T09:07:44.712Z,6200
2017-02-12T09:08:57.795Z,6276
2017-02-12T09:10:10.527Z,6344
2017-02-12T09:11:23.617Z,6476
2017-02-12T09:12:36.726Z,6516
2017-02-12T09:13:49.835Z,6540
2017-02-12T09:15:02.596Z,6628
2017-02-12T09:16:15.331Z,6748
2017-02-12T09:17:28.014Z,6820
2017-02-12T09:18:41.075Z,6876
2017-02-12T09:19:53.822Z,6988
2017-02-12T09:21:06.901Z,7112
2017-02-12T09:22:19.171Z,7188
2017-02-12T09:23:32.283Z,7328
2017-02-12T09:24:45.325Z,7452
2017-02-12T09:25:58.630Z,7604
2017-02-12T09:27:11.769Z,7760
2017-02-12T09:28:24.816Z,7920
2017-02-12T09:29:37.886Z,8024
2017-02-12T09:30:50.917Z,8096
2017-02-12T09:32:03.978Z,8204
2017-02-12T09:33:16.253Z,8320
2017-02-12T09:34:29.337Z,8416
2017-02-12T09:35:42.397Z,8528
2017-02-12T09:36:55.481Z,8632
2017-02-12T09:38:08.550Z,8524
2017-02-12T09:39:21.214Z,8332
2017-02-12T09:40:34.247Z,8256
2017-02-12T09:41:47.300Z,8220
2017-02-12T09:43:00.316Z,8152
2017-02-12T09:44:12.259Z,8096
2017-02-12T09:45:25.327Z,8080
2017-02-12T09:46:38.382Z,8044
2017-02-12T09:47:51.705Z,7976
2017-02-12T09:49:04.429Z,7984
2017-02-12T09:50:16.760Z,8112
2017-02-12T09:51:29.817Z,8244
2017-02-12T09:52:42.482Z,8332
2017-02-12T09:53:55.525Z,8572
2017-02-12T09:55:08.618Z,8860
2017-02-12T09:56:21.747Z,9052
2017-02-12T09:57:34.841Z,9252
2017-02-12T09:58:48.155Z,9448
2017-02-12T10:00:01.220Z,9564
2017-02-12T10:01:14.340Z,9672
2017-02-12T10:02:27.410Z,9820
2017-02-12T10:03:40.457Z,9880
2017-02-12T10:04:53.453Z,10112
2017-02-12T10:06:06.567Z,10348
2017-02-12T10:07:19.252Z,10444
2017-02-12T10:08:32.308Z,10484
2017-02-12T10:09:45.402Z,10476
2017-02-12T10:10:58.464Z,10488
2017-02-12T10:12:11.510Z,10320
2017-02-12T10:13:24.619Z,10216
2017-02-12T10:14:37.694Z,10128
2017-02-12T10:15:50.774Z,9964
2017-02-12T10:17:03.798Z,9892
2017-02-12T10:18:15.705Z,9912
2017-02-12T10:19:28.357Z,9860
2017-02-12T10:20:41.021Z,10012
2017-02-12T10:21:53.708Z,9992
2017-02-12T10:23:06.754Z,10020
2017-02-12T10:24:19.459Z,10172
2017-02-12T10:25:32.565Z,10188
2017-02-12T10:26:45.642Z,10196
2017-02-12T10:27:58.731Z,10188
2017-02-12T10:29:11.799Z,10032
2017-02-12T10:30:24.917Z,9936
2017-02-12T10:31:38.006Z,9996
2017-02-12T10:32:51.097Z,10104
2017-02-12T10:34:04.148Z,10180
2017-02-12T10:35:16.892Z,10292
2017-02-12T10:36:30.029Z,10444
2017-02-12T10:37:43.074Z,10624
2017-02-12T10:38:56.176Z,10736
2017-02-12T10:40:09.172Z,11012
2017-02-12T10:41:21.889Z,11284
2017-02-12T10:42:34.933Z,11452
2017-02-12T10:43:48.053Z,11380
2017-02-12T10:45:01.102Z,11464
2017-02-12T10:46:13.785Z,11664
2017-02-12T10:47:26.495Z,11732
2017-02-12T10:48:39.587Z,11620
2017-02-12T10:49:52.610Z,11744
2017-02-12T10:51:05.690Z,11996
2017-02-12T10:52:18.798Z,12360
2017-02-12T10:53:31.874Z,12596
2017-02-12T10:54:44.552Z,12856
2017-02-12T10:55:57.255Z,13068
2017-02-12T10:57:10.344Z,13252
2017-02-12T10:58:23.430Z,13268
2017-02-12T10:59:36.499Z,13196
2017-02-12T11:00:49.170Z,13072
2017-02-12T11:02:02.220Z,12796
2017-02-12T11:03:15.287Z,12860
2017-02-12T11:04:28.363Z,12996
2017-02-12T11:05:41.396Z,13288
2017-02-12T11:06:54.075Z,13380
2017-02-12T11:08:07.145Z,13172
2017-02-12T11:09:19.402Z,13196
2017-02-12T11:10:32.463Z,13180
2017-02-12T11:11:45.526Z,13028
2017-02-12T11:12:58.610Z,13000
2017-02-12T11:14:11.555Z,12856
2017-02-12T11:15:24.203Z,12628
2017-02-12T11:16:37.290Z,12644
2017-02-12T11:17:50.416Z,12600
2017-02-12T11:19:03.540Z,12552
2017-02-12T11:20:16.241Z,12472
2017-02-12T11:21:28.887Z,12480
2017-02-12T11:22:41.928Z,12548
2017-02-12T11:23:55.028Z,12784
2017-02-12T11:25:08.192Z,12988
2017-02-12T11:26:21.335Z,13224
2017-02-12T11:27:34.356Z,13588
2017-02-12T11:28:47.394Z,14024
2017-02-12T11:30:00.416Z,14100
2017-02-12T11:31:13.113Z,14208
2017-02-12T11:32:26.191Z,14312
2017-02-12T11:33:39.277Z,14220
2017-02-12T11:34:51.932Z,14344
2017-02-12T11:36:04.970Z,14500
2017-02-12T11:37:18.053Z,14504
2017-02-12T11:38:31.107Z,14680
2017-02-12T11:39:44.164Z,14644
2017-02-12T11:40:57.525Z,14100
2017-02-12T11:42:10.638Z,14056
2017-02-12T11:43:23.695Z,14316
2017-02-12T11:44:36.754Z,14340
2017-02-12T11:45:49.788Z,14032
2017-02-12T11:47:02.815Z,14264
2017-02-12T11:48:15.557Z,14308
2017-02-12T11:49:27.847Z,13824
2017-02-12T11:50:40.958Z,13744
2017-02-12T11:51:54.015Z,13756
2017-02-12T11:53:07.106Z,13772
2017-02-12T11:54:19.868Z,13788
2017-02-12T11:55:32.938Z,14012
2017-02-12T11:56:46.015Z,14092
2017-02-12T11:57:59.445Z,14144
2017-02-12T11:59:12.476Z,14124
2017-02-12T12:00:25.169Z,14096
2017-02-12T12:01:38.218Z,14272
2017-02-12T12:02:51.328Z,14144
2017-02-12T12:04:04.385Z,13836
2017-02-12T12:05:17.433Z,13696
2017-02-12T12:06:30.460Z,13836
2017-02-12T12:07:43.526Z,13920
2017-02-12T12:08:56.622Z,13976
2017-02-12T12:10:09.715Z,14072
2017-02-12T12:11:22.439Z,13832
2017-02-12T12:12:35.111Z,13736
2017-02-12T12:13:48.130Z,13876
2017-02-12T12:15:01.205Z,13988
2017-02-12T12:16:12.733Z,13896
2017-02-12T12:17:25.773Z,13660
2017-02-12T12:18:38.862Z,13512
2017-02-12T12:19:52.135Z,13920
2017-02-12T12:21:05.167Z,14596
2017-02-12T12:22:18.221Z,14980
2017-02-12T12:23:31.318Z,15048
2017-02-12T12:24:44.403Z,15248
2017-02-12T12:25:57.475Z,15316
2017-02-12T12:27:10.160Z,15216
2017-02-12T12:28:23.216Z,15048
2017-02-12T12:29:36.227Z,15204
2017-02-12T12:30:49.272Z,14956
2017-02-12T12:32:02.363Z,15068
2017-02-12T12:33:14.633Z,15108
2017-02-12T12:34:27.308Z,14920
2017-02-12T12:35:40.447Z,14408
2017-02-12T12:36:53.096Z,14192
2017-02-12T12:38:06.218Z,14500
2017-02-12T12:39:19.340Z,14524
2017-02-12T12:40:32.014Z,14396
2017-02-12T12:41:44.687Z,14456
2017-02-12T12:42:57.743Z,14736
2017-02-12T12:44:10.734Z,15184
2017-02-12T12:45:23.785Z,15864
2017-02-12T12:46:36.888Z,15520
2017-02-12T12:47:49.988Z,15572
2017-02-12T12:49:02.711Z,15724
2017-02-12T12:50:15.407Z,15664
2017-02-12T12:51:28.520Z,14548
2017-02-12T12:52:41.524Z,13964
2017-02-12T12:53:54.624Z,13092
2017-02-12T12:55:07.709Z,12460
2017-02-12T12:56:20.824Z,11736
2017-02-12T12:57:33.827Z,10704
2017-02-12T12:58:46.870Z,10164
2017-02-12T12:59:59.946Z,9920
2017-02-12T13:01:13.064Z,9164
2017-02-12T13:02:25.763Z,9436
2017-02-12T13:03:38.892Z,9188
2017-02-12T13:04:51.956Z,8456
2017-02-12T13:06:05.051Z,7856
2017-02-12T13:07:17.742Z,8072
2017-02-12T13:08:30.819Z,8068
2017-02-12T13:09:43.934Z,8412
2017-02-12T13:10:57.029Z,8732
2017-02-12T13:12:09.319Z,9320
2017-02-12T13:13:22.420Z,9448
2017-02-12T13:14:35.503Z,9920
2017-02-12T13:15:48.555Z,9984
2017-02-12T13:17:01.650Z,9848
2017-02-12T13:18:14.756Z,10088
2017-02-12T13:19:28.055Z,10864
2017-02-12T13:20:41.133Z,11560
2017-02-12T13:21:54.150Z,11628
2017-02-12T13:23:06.782Z,11564
2017-02-12T13:24:19.888Z,11576
2017-02-12T13:25:33.009Z,11232
2017-02-12T13:26:46.107Z,11156
2017-02-12T13:27:59.180Z,11264
2017-02-12T13:29:12.228Z,10952
2017-02-12T13:30:25.344Z,10928
2017-02-12T13:31:38.553Z,10960
2017-02-12T13:32:51.586Z,10616
2017-02-12T13:34:04.259Z,10304
2017-02-12T13:35:16.974Z,10272
2017-02-12T13:36:30.045Z,10100
2017-02-12T13:37:43.169Z,10332
2017-02-12T13:38:56.242Z,10368
2017-02-12T13:40:08.962Z,9924
2017-02-12T13:41:22.044Z,9920
2017-02-12T13:42:35.099Z,9836
2017-02-12T13:43:48.175Z,9420
2017-02-12T13:45:01.242Z,9324
2017-02-12T13:46:14.370Z,9328
2017-02-12T13:47:27.468Z,9240
2017-02-12T13:48:40.152Z,9160
2017-02-12T13:49:53.242Z,9092
2017-02-12T13:51:06.298Z,8976
2017-02-12T13:52:18.926Z,8860
2017-02-12T13:53:31.647Z,8688
2017-02-12T13:54:44.725Z,8508
2017-02-12T13:55:57.806Z,8252
2017-02-12T13:57:10.455Z,8052
2017-02-12T13:58:23.537Z,7952
2017-02-12T13:59:36.627Z,7808
2017-02-12T14:00:49.742Z,7680
2017-02-12T14:02:03.058Z,7624
2017-02-12T14:03:15.814Z,7596
2017-02-12T14:04:28.886Z,7420
2017-02-12T14:05:41.995Z,7252
2017-02-12T14:06:55.090Z,7240
2017-02-12T14:08:07.823Z,7272
2017-02-12T14:09:20.907Z,7252
2017-02-12T14:10:33.981Z,7204
2017-02-12T14:11:47.049Z,7228
2017-02-12T14:13:00.107Z,7120
2017-02-12T14:14:12.766Z,7000
2017-02-12T14:15:25.843Z,7020
2017-02-12T14:16:38.919Z,6896
2017-02-12T14:17:52.036Z,6860
2017-02-12T14:19:05.136Z,6788
2017-02-12T14:20:18.202Z,6696
2017-02-12T14:21:31.241Z,6464
2017-02-12T14:22:44.314Z,6220
2017-02-12T14:23:57.375Z,5992
2017-02-12T14:25:10.061Z,5792
2017-02-12T14:26:23.185Z,5624
2017-02-12T14:27:36.272Z,5552
2017-02-12T14:28:49.304Z,5644
2017-02-12T14:30:02.444Z,5760
2017-02-12T14:31:15.650Z,5820
2017-02-12T14:32:28.721Z,5800
2017-02-12T14:33:41.786Z,5760
2017-02-12T14:34:54.807Z,5624
2017-02-12T14:36:07.881Z,5508
2017-02-12T14:37:20.619Z,5332
2017-02-12T14:38:33.734Z,5116
2017-02-12T14:39:46.829Z,4960
2017-02-12T14:40:59.973Z,4896
2017-02-12T14:42:12.282Z,4860
2017-02-12T14:43:25.303Z,4804
2017-02-12T14:44:37.974Z,4740
2017-02-12T14:45:51.040Z,4576
2017-02-12T14:47:04.110Z,4476
2017-02-12T14:48:16.404Z,4436
2017-02-12T14:49:29.527Z,4444
2017-02-12T14:50:42.579Z,4560
2017-02-12T14:51:55.662Z,4648
2017-02-12T14:53:08.685Z,4656
2017-02-12T14:54:21.353Z,4728
2017-02-12T14:55:34.479Z,4780
2017-02-12T14:56:47.571Z,4632
2017-02-12T14:58:00.611Z,4380
2017-02-12T14:59:13.730Z,4224
2017-02-12T15:00:26.834Z,4112
2017-02-12T15:01:39.891Z,3972
2017-02-12T15:02:52.952Z,3876
2017-02-12T15:04:05.620Z,3748
2017-02-12T15:05:18.746Z,3644
2017-02-12T15:06:31.862Z,3496
2017-02-12T15:07:44.495Z,3296
2017-02-12T15:08:57.537Z,3184
2017-02-12T15:10:10.276Z,3140
2017-02-12T15:11:23.334Z,3092
2017-02-12T15:12:36.490Z,3048
2017-02-12T15:13:49.553Z,3040
2017-02-12T15:15:02.669Z,2996
2017-02-12T15:16:15.734Z,2936
2017-02-12T15:17:28.837Z,2840
2017-02-12T15:18:41.916Z,2740
2017-02-12T15:19:54.610Z,2660
2017-02-12T15:21:06.889Z,2580
2017-02-12T15:22:19.545Z,2496
2017-02-12T15:23:32.312Z,2412
2017-02-12T15:24:45.432Z,2320
2017-02-12T15:25:58.502Z,2204
2017-02-12T15:27:11.559Z,2120
2017-02-12T15:28:24.239Z,2076
2017-02-12T15:29:37.296Z,2020
2017-02-12T15:30:50.056Z,1944
2017-02-12T15:32:03.102Z,1860
2017-02-12T15:33:15.821Z,1768
2017-02-12T15:34:28.946Z,1680
2017-02-12T15:35:42.065Z,1608
2017-02-12T15:36:55.236Z,1544
2017-02-12T15:38:08.311Z,1468
2017-02-12T15:39:21.274Z,1428
2017-02-12T15:40:33.991Z,1396
2017-02-12T15:41:47.001Z,1360
2017-02-12T15:43:00.081Z,1324
2017-02-12T15:44:12.742Z,1268
2017-02-12T15:45:25.811Z,1212
2017-02-12T15:46:38.890Z,1136
2017-02-12T15:47:51.939Z,1072
2017-02-12T15:49:04.980Z,1016
2017-02-12T15:50:18.072Z,956
2017-02-12T15:51:31.168Z,896
2017-02-12T15:52:43.867Z,848
2017-02-12T15:53:56.952Z,788
2017-02-12T15:55:10.014Z,740
2017-02-12T15:56:23.101Z,696
2017-02-12T15:57:36.168Z,656
2017-02-12T15:58:49.201Z,612
2017-02-12T16:00:02.259Z,564
2017-02-12T16:01:14.543Z,512
2017-02-12T16:02:27.636Z,468
2017-02-12T16:03:40.687Z,424
2017-02-12T16:04:53.802Z,384
2017-02-12T16:06:06.879Z,348
2017-02-12T16:07:19.549Z,312
2017-02-12T16:08:32.629Z,280
2017-02-12T16:09:45.677Z,248
2017-02-12T16:10:58.687Z,224
2017-02-12T16:12:11.768Z,200
2017-02-12T16:13:24.443Z,180
2017-02-12T16:14:37.536Z,160
2017-02-12T16:15:50.278Z,140
2017-02-12T16:17:03.324Z,120
2017-02-12T16:18:16.043Z,104
2017-02-12T16:19:29.109Z,92
2017-02-12T16:20:42.192Z,80
2017-02-12T16:21:55.448Z,72
2017-02-12T16:23:08.184Z,64
2017-02-12T16:24:20.830Z,56
2017-02-12T16:25:33.911Z,44
2017-02-12T16:26:47.015Z,40
2017-02-12T16:28:00.062Z,32
2017-02-12T16:29:13.115Z,28
2017-02-12T16:30:25.766Z,24
2017-02-12T16:31:38.825Z,20
2017-02-12T16:32:51.898Z,16
2017-02-12T16:34:05.042Z,16
2017-02-12T16:35:17.717Z,12
2017-02-12T16:36:30.764Z,8
2017-02-12T16:37:43.860Z,8
2017-02-12T16:38:56.887Z,8
2017-02-12T16:40:10.001Z,4
2017-02-12T16:41:22.684Z,4
2017-02-12T16:42:35.749Z,4
2017-02-12T16:43:48.808Z,0
2017-02-12T16:45:01.872Z,4
2017-02-12T16:46:14.563Z,4
2017-02-12T16:47:27.670Z,0
2017-02-12T16:48:40.777Z,0